sensor_id;sensor_type;location;lat;lon;timestamp;P1;durP1;ratioP1;P2;durP2;ratioP2
25263;SDS011;13211;51.796;5.808;2023-03-01T00:04:43;14.93;;;7.28;;
25263;SDS011;13211;51.796;5.808;2023-03-01T00:07:11;12.32;;;6.85;;
25263;SDS011;13211;51.796;5.808;2023-03-01T00:09:39;13.23;;;7.53;;
25263;SDS011;13211;51.796;5.808;2023-03-01T00:12:06;16.92;;;8.05;;
25263;SDS011;13211;51.796;5.808;2023-03-01T00:14:35;12.40;;;7.00;;
25263;SDS011;13211;51.796;5.808;2023-03-01T00:17:03;13.98;;;6.95;;
25263;SDS011;13211;51.796;5.808;2023-03-01T00:19:31;10.77;;;6.65;;
25263;SDS011;13211;51.796;5.808;2023-03-01T00:21:59;15.50;;;7.78;;
25263;SDS011;13211;51.796;5.808;2023-03-01T00:24:31;13.05;;;6.82;;
25263;SDS011;13211;51.796;5.808;2023-03-01T00:26:59;19.30;;;7.80;;
25263;SDS011;13211;51.796;5.808;2023-03-01T00:29:27;14.40;;;7.90;;
25263;SDS011;13211;51.796;5.808;2023-03-01T00:31:55;16.98;;;7.47;;
25263;SDS011;13211;51.796;5.808;2023-03-01T00:34:23;11.90;;;7.22;;
25263;SDS011;13211;51.796;5.808;2023-03-01T00:36:51;12.63;;;6.95;;
25263;SDS011;13211;51.796;5.808;2023-03-01T00:39:19;13.80;;;7.28;;
25263;SDS011;13211;51.796;5.808;2023-03-01T00:41:48;14.50;;;7.93;;
25263;SDS011;13211;51.796;5.808;2023-03-01T00:44:17;14.55;;;7.53;;
25263;SDS011;13211;51.796;5.808;2023-03-01T00:46:45;14.38;;;8.00;;
25263;SDS011;13211;51.796;5.808;2023-03-01T00:49:13;16.73;;;7.75;;
25263;SDS011;13211;51.796;5.808;2023-03-01T00:51:41;11.77;;;7.07;;
25263;SDS011;13211;51.796;5.808;2023-03-01T00:54:09;13.50;;;7.40;;
25263;SDS011;13211;51.796;5.808;2023-03-01T00:56:37;12.63;;;7.25;;
25263;SDS011;13211;51.796;5.808;2023-03-01T00:59:05;12.95;;;7.18;;
25263;SDS011;13211;51.796;5.808;2023-03-01T01:01:33;14.55;;;6.85;;
25263;SDS011;13211;51.796;5.808;2023-03-01T01:04:02;13.10;;;7.38;;
25263;SDS011;13211;51.796;5.808;2023-03-01T01:06:38;10.47;;;6.70;;
25263;SDS011;13211;51.796;5.808;2023-03-01T01:09:11;12.60;;;7.05;;
25263;SDS011;13211;51.796;5.808;2023-03-01T01:11:48;11.77;;;6.70;;
25263;SDS011;13211;51.796;5.808;2023-03-01T01:14:17;11.27;;;6.40;;
25263;SDS011;13211;51.796;5.808;2023-03-01T01:16:49;11.85;;;6.68;;
25263;SDS011;13211;51.796;5.808;2023-03-01T01:19:19;17.58;;;7.15;;
25263;SDS011;13211;51.796;5.808;2023-03-01T01:21:51;15.50;;;7.18;;
25263;SDS011;13211;51.796;5.808;2023-03-01T01:24:19;16.05;;;7.10;;
25263;SDS011;13211;51.796;5.808;2023-03-01T01:26:48;12.98;;;6.93;;
25263;SDS011;13211;51.796;5.808;2023-03-01T01:29:17;12.40;;;6.88;;
25263;SDS011;13211;51.796;5.808;2023-03-01T01:31:47;10.93;;;6.43;;
25263;SDS011;13211;51.796;5.808;2023-03-01T01:34:19;15.23;;;6.82;;
25263;SDS011;13211;51.796;5.808;2023-03-01T01:36:48;12.23;;;7.10;;
25263;SDS011;13211;51.796;5.808;2023-03-01T01:39:23;11.00;;;7.22;;
25263;SDS011;13211;51.796;5.808;2023-03-01T01:41:51;13.60;;;7.13;;
25263;SDS011;13211;51.796;5.808;2023-03-01T01:44:26;11.85;;;6.93;;
25263;SDS011;13211;51.796;5.808;2023-03-01T01:46:55;13.52;;;7.43;;
25263;SDS011;13211;51.796;5.808;2023-03-01T01:49:27;11.18;;;6.70;;
25263;SDS011;13211;51.796;5.808;2023-03-01T01:54:53;15.15;;;7.38;;
25263;SDS011;13211;51.796;5.808;2023-03-01T01:57:26;14.45;;;7.60;;
25263;SDS011;13211;51.796;5.808;2023-03-01T01:59:56;14.25;;;7.47;;
25263;SDS011;13211;51.796;5.808;2023-03-01T02:02:26;13.15;;;6.35;;
25263;SDS011;13211;51.796;5.808;2023-03-01T02:04:58;14.02;;;7.63;;
25263;SDS011;13211;51.796;5.808;2023-03-01T02:07:31;13.27;;;6.75;;
25263;SDS011;13211;51.796;5.808;2023-03-01T02:10:00;15.25;;;7.18;;
25263;SDS011;13211;51.796;5.808;2023-03-01T02:12:29;14.40;;;7.13;;
25263;SDS011;13211;51.796;5.808;2023-03-01T02:15:00;15.05;;;6.88;;
25263;SDS011;13211;51.796;5.808;2023-03-01T02:17:28;14.80;;;7.63;;
25263;SDS011;13211;51.796;5.808;2023-03-01T02:22:39;13.18;;;7.32;;
25263;SDS011;13211;51.796;5.808;2023-03-01T02:27:58;14.63;;;7.38;;
25263;SDS011;13211;51.796;5.808;2023-03-01T02:30:27;14.48;;;7.40;;
25263;SDS011;13211;51.796;5.808;2023-03-01T02:32:56;15.52;;;7.47;;
25263;SDS011;13211;51.796;5.808;2023-03-01T02:35:34;14.02;;;7.28;;
25263;SDS011;13211;51.796;5.808;2023-03-01T02:38:03;14.77;;;7.65;;
25263;SDS011;13211;51.796;5.808;2023-03-01T02:40:31;15.23;;;6.88;;
25263;SDS011;13211;51.796;5.808;2023-03-01T02:43:00;11.27;;;7.07;;
25263;SDS011;13211;51.796;5.808;2023-03-01T02:45:29;12.35;;;7.70;;
25263;SDS011;13211;51.796;5.808;2023-03-01T02:47:57;11.52;;;6.72;;
25263;SDS011;13211;51.796;5.808;2023-03-01T02:53:13;13.32;;;7.07;;
25263;SDS011;13211;51.796;5.808;2023-03-01T02:55:43;12.73;;;7.10;;
25263;SDS011;13211;51.796;5.808;2023-03-01T02:58:16;14.18;;;7.05;;
25263;SDS011;13211;51.796;5.808;2023-03-01T03:00:43;13.18;;;7.30;;
25263;SDS011;13211;51.796;5.808;2023-03-01T03:03:19;12.90;;;6.85;;
25263;SDS011;13211;51.796;5.808;2023-03-01T03:05:48;12.93;;;6.53;;
25263;SDS011;13211;51.796;5.808;2023-03-01T03:08:17;14.45;;;6.93;;
25263;SDS011;13211;51.796;5.808;2023-03-01T03:10:51;13.27;;;6.63;;
25263;SDS011;13211;51.796;5.808;2023-03-01T03:13:21;10.40;;;6.63;;
25263;SDS011;13211;51.796;5.808;2023-03-01T03:15:49;13.88;;;6.90;;
25263;SDS011;13211;51.796;5.808;2023-03-01T03:18:18;12.98;;;6.65;;
25263;SDS011;13211;51.796;5.808;2023-03-01T03:20:47;12.27;;;6.07;;
25263;SDS011;13211;51.796;5.808;2023-03-01T03:23:19;12.55;;;6.75;;
25263;SDS011;13211;51.796;5.808;2023-03-01T03:25:49;10.15;;;6.20;;
25263;SDS011;13211;51.796;5.808;2023-03-01T03:28:17;14.80;;;6.78;;
25263;SDS011;13211;51.796;5.808;2023-03-01T03:30:47;12.60;;;7.00;;
25263;SDS011;13211;51.796;5.808;2023-03-01T03:33:16;14.55;;;7.10;;
25263;SDS011;13211;51.796;5.808;2023-03-01T03:35:44;15.95;;;6.82;;
25263;SDS011;13211;51.796;5.808;2023-03-01T03:38:13;14.55;;;6.85;;
25263;SDS011;13211;51.796;5.808;2023-03-01T03:40:45;14.85;;;7.13;;
25263;SDS011;13211;51.796;5.808;2023-03-01T03:43:14;15.73;;;7.28;;
25263;SDS011;13211;51.796;5.808;2023-03-01T03:45:46;18.38;;;7.20;;
25263;SDS011;13211;51.796;5.808;2023-03-01T03:48:14;15.45;;;7.30;;
25263;SDS011;13211;51.796;5.808;2023-03-01T03:50:41;15.15;;;7.32;;
25263;SDS011;13211;51.796;5.808;2023-03-01T03:53:10;16.20;;;7.93;;
25263;SDS011;13211;51.796;5.808;2023-03-01T03:55:38;13.40;;;7.75;;
25263;SDS011;13211;51.796;5.808;2023-03-01T03:58:07;15.48;;;7.57;;
25263;SDS011;13211;51.796;5.808;2023-03-01T04:03:04;13.88;;;7.90;;
25263;SDS011;13211;51.796;5.808;2023-03-01T04:05:32;16.60;;;7.43;;
25263;SDS011;13211;51.796;5.808;2023-03-01T04:07:59;14.73;;;7.57;;
25263;SDS011;13211;51.796;5.808;2023-03-01T04:10:28;13.50;;;7.20;;
25263;SDS011;13211;51.796;5.808;2023-03-01T04:12:56;15.60;;;7.72;;
25263;SDS011;13211;51.796;5.808;2023-03-01T04:15:25;16.25;;;7.93;;
25263;SDS011;13211;51.796;5.808;2023-03-01T04:17:53;12.73;;;7.85;;
25263;SDS011;13211;51.796;5.808;2023-03-01T04:20:23;18.65;;;7.90;;
25263;SDS011;13211;51.796;5.808;2023-03-01T04:23:02;15.15;;;7.80;;
25263;SDS011;13211;51.796;5.808;2023-03-01T04:25:38;16.60;;;8.57;;
25263;SDS011;13211;51.796;5.808;2023-03-01T04:28:06;13.13;;;7.55;;
25263;SDS011;13211;51.796;5.808;2023-03-01T04:30:34;15.70;;;7.85;;
25263;SDS011;13211;51.796;5.808;2023-03-01T04:33:04;13.37;;;7.70;;
25263;SDS011;13211;51.796;5.808;2023-03-01T04:35:31;13.80;;;7.68;;
25263;SDS011;13211;51.796;5.808;2023-03-01T04:37:59;14.00;;;7.50;;
25263;SDS011;13211;51.796;5.808;2023-03-01T04:40:27;11.75;;;7.35;;
25263;SDS011;13211;51.796;5.808;2023-03-01T04:42:55;15.43;;;8.13;;
25263;SDS011;13211;51.796;5.808;2023-03-01T04:45:23;19.83;;;7.90;;
25263;SDS011;13211;51.796;5.808;2023-03-01T04:47:51;17.20;;;7.45;;
25263;SDS011;13211;51.796;5.808;2023-03-01T04:50:19;13.98;;;7.78;;
25263;SDS011;13211;51.796;5.808;2023-03-01T04:52:50;16.98;;;7.97;;
25263;SDS011;13211;51.796;5.808;2023-03-01T04:55:18;12.70;;;7.32;;
25263;SDS011;13211;51.796;5.808;2023-03-01T04:57:53;14.68;;;7.38;;
25263;SDS011;13211;51.796;5.808;2023-03-01T05:00:22;14.45;;;7.72;;
25263;SDS011;13211;51.796;5.808;2023-03-01T05:02:51;13.25;;;7.45;;
25263;SDS011;13211;51.796;5.808;2023-03-01T05:05:23;16.73;;;8.13;;
25263;SDS011;13211;51.796;5.808;2023-03-01T05:07:53;15.75;;;7.97;;
25263;SDS011;13211;51.796;5.808;2023-03-01T05:10:21;17.88;;;8.35;;
25263;SDS011;13211;51.796;5.808;2023-03-01T05:15:24;16.00;;;7.63;;
25263;SDS011;13211;51.796;5.808;2023-03-01T05:17:54;14.38;;;7.85;;
25263;SDS011;13211;51.796;5.808;2023-03-01T05:20:22;16.35;;;8.70;;
25263;SDS011;13211;51.796;5.808;2023-03-01T05:22:50;14.85;;;8.13;;
25263;SDS011;13211;51.796;5.808;2023-03-01T05:25:18;14.80;;;8.25;;
25263;SDS011;13211;51.796;5.808;2023-03-01T05:27:47;17.07;;;7.60;;
25263;SDS011;13211;51.796;5.808;2023-03-01T05:30:16;16.90;;;7.90;;
25263;SDS011;13211;51.796;5.808;2023-03-01T05:32:47;15.98;;;7.32;;
25263;SDS011;13211;51.796;5.808;2023-03-01T05:37:46;13.20;;;7.23;;
25263;SDS011;13211;51.796;5.808;2023-03-01T05:40:16;12.25;;;7.45;;
25263;SDS011;13211;51.796;5.808;2023-03-01T05:42:48;14.60;;;7.30;;
25263;SDS011;13211;51.796;5.808;2023-03-01T05:45:17;14.18;;;7.72;;
25263;SDS011;13211;51.796;5.808;2023-03-01T05:47:47;16.48;;;8.35;;
25263;SDS011;13211;51.796;5.808;2023-03-01T05:50:20;15.53;;;8.17;;
25263;SDS011;13211;51.796;5.808;2023-03-01T05:52:50;13.90;;;7.63;;
25263;SDS011;13211;51.796;5.808;2023-03-01T05:55:19;15.25;;;8.27;;
25263;SDS011;13211;51.796;5.808;2023-03-01T05:57:48;15.70;;;8.25;;
25263;SDS011;13211;51.796;5.808;2023-03-01T06:00:17;13.65;;;8.10;;
25263;SDS011;13211;51.796;5.808;2023-03-01T06:02:47;16.13;;;7.50;;
25263;SDS011;13211;51.796;5.808;2023-03-01T06:05:17;15.10;;;8.40;;
25263;SDS011;13211;51.796;5.808;2023-03-01T06:07:46;16.25;;;7.85;;
25263;SDS011;13211;51.796;5.808;2023-03-01T06:10:15;14.82;;;7.85;;
25263;SDS011;13211;51.796;5.808;2023-03-01T06:12:43;17.77;;;7.83;;
25263;SDS011;13211;51.796;5.808;2023-03-01T06:15:12;15.23;;;7.75;;
25263;SDS011;13211;51.796;5.808;2023-03-01T06:17:41;15.80;;;7.80;;
25263;SDS011;13211;51.796;5.808;2023-03-01T06:22:43;16.33;;;7.63;;
25263;SDS011;13211;51.796;5.808;2023-03-01T06:25:11;15.35;;;8.05;;
25263;SDS011;13211;51.796;5.808;2023-03-01T06:27:40;13.80;;;8.38;;
25263;SDS011;13211;51.796;5.808;2023-03-01T06:30:08;18.15;;;7.43;;
25263;SDS011;13211;51.796;5.808;2023-03-01T06:32:37;14.93;;;7.50;;
25263;SDS011;13211;51.796;5.808;2023-03-01T06:35:10;17.52;;;8.27;;
25263;SDS011;13211;51.796;5.808;2023-03-01T06:37:38;16.88;;;8.68;;
25263;SDS011;13211;51.796;5.808;2023-03-01T06:40:06;14.25;;;7.45;;
25263;SDS011;13211;51.796;5.808;2023-03-01T06:42:35;16.63;;;8.98;;
25263;SDS011;13211;51.796;5.808;2023-03-01T06:45:03;13.68;;;7.60;;
25263;SDS011;13211;51.796;5.808;2023-03-01T06:47:32;14.13;;;7.47;;
25263;SDS011;13211;51.796;5.808;2023-03-01T06:50:00;13.55;;;8.05;;
25263;SDS011;13211;51.796;5.808;2023-03-01T06:52:29;16.52;;;8.32;;
25263;SDS011;13211;51.796;5.808;2023-03-01T06:54:57;15.60;;;8.18;;
25263;SDS011;13211;51.796;5.808;2023-03-01T06:57:25;15.75;;;7.78;;
25263;SDS011;13211;51.796;5.808;2023-03-01T06:59:53;17.15;;;8.55;;
25263;SDS011;13211;51.796;5.808;2023-03-01T07:02:21;18.08;;;8.18;;
25263;SDS011;13211;51.796;5.808;2023-03-01T07:04:49;16.88;;;8.55;;
25263;SDS011;13211;51.796;5.808;2023-03-01T07:07:17;15.18;;;8.23;;
25263;SDS011;13211;51.796;5.808;2023-03-01T07:09:46;16.13;;;8.77;;
25263;SDS011;13211;51.796;5.808;2023-03-01T07:12:16;14.40;;;8.30;;
25263;SDS011;13211;51.796;5.808;2023-03-01T07:14:44;16.23;;;8.43;;
25263;SDS011;13211;51.796;5.808;2023-03-01T07:17:11;17.27;;;9.52;;
25263;SDS011;13211;51.796;5.808;2023-03-01T07:19:40;17.35;;;8.82;;
25263;SDS011;13211;51.796;5.808;2023-03-01T07:22:08;15.95;;;8.70;;
25263;SDS011;13211;51.796;5.808;2023-03-01T07:24:35;15.82;;;8.50;;
25263;SDS011;13211;51.796;5.808;2023-03-01T07:27:03;15.93;;;8.43;;
25263;SDS011;13211;51.796;5.808;2023-03-01T07:29:31;21.55;;;8.98;;
25263;SDS011;13211;51.796;5.808;2023-03-01T07:31:59;16.45;;;8.85;;
25263;SDS011;13211;51.796;5.808;2023-03-01T07:34:27;20.13;;;8.60;;
25263;SDS011;13211;51.796;5.808;2023-03-01T07:36:55;16.40;;;9.13;;
25263;SDS011;13211;51.796;5.808;2023-03-01T07:39:24;16.47;;;9.97;;
25263;SDS011;13211;51.796;5.808;2023-03-01T07:41:52;18.50;;;9.40;;
25263;SDS011;13211;51.796;5.808;2023-03-01T07:44:21;19.40;;;9.18;;
25263;SDS011;13211;51.796;5.808;2023-03-01T07:46:49;18.92;;;9.68;;
25263;SDS011;13211;51.796;5.808;2023-03-01T07:49:23;16.20;;;9.25;;
25263;SDS011;13211;51.796;5.808;2023-03-01T07:51:56;17.90;;;9.73;;
25263;SDS011;13211;51.796;5.808;2023-03-01T07:54:24;18.25;;;8.90;;
25263;SDS011;13211;51.796;5.808;2023-03-01T07:56:52;18.30;;;9.35;;
25263;SDS011;13211;51.796;5.808;2023-03-01T07:59:21;18.58;;;9.15;;
25263;SDS011;13211;51.796;5.808;2023-03-01T08:01:56;17.73;;;9.82;;
25263;SDS011;13211;51.796;5.808;2023-03-01T08:04:25;20.57;;;10.07;;
25263;SDS011;13211;51.796;5.808;2023-03-01T08:06:53;15.68;;;9.50;;
25263;SDS011;13211;51.796;5.808;2023-03-01T08:09:21;17.77;;;10.00;;
25263;SDS011;13211;51.796;5.808;2023-03-01T08:11:49;21.13;;;10.35;;
25263;SDS011;13211;51.796;5.808;2023-03-01T08:14:17;25.13;;;10.13;;
25263;SDS011;13211;51.796;5.808;2023-03-01T08:16:48;19.42;;;10.48;;
25263;SDS011;13211;51.796;5.808;2023-03-01T08:19:16;22.27;;;9.77;;
25263;SDS011;13211;51.796;5.808;2023-03-01T08:21:44;23.58;;;10.05;;
25263;SDS011;13211;51.796;5.808;2023-03-01T08:24:12;17.58;;;9.65;;
25263;SDS011;13211;51.796;5.808;2023-03-01T08:26:40;17.70;;;9.85;;
25263;SDS011;13211;51.796;5.808;2023-03-01T08:29:07;16.33;;;8.88;;
25263;SDS011;13211;51.796;5.808;2023-03-01T08:31:36;16.95;;;9.60;;
25263;SDS011;13211;51.796;5.808;2023-03-01T08:34:07;16.02;;;9.13;;
25263;SDS011;13211;51.796;5.808;2023-03-01T08:36:39;15.85;;;8.65;;
25263;SDS011;13211;51.796;5.808;2023-03-01T08:39:09;18.33;;;8.85;;
25263;SDS011;13211;51.796;5.808;2023-03-01T08:41:38;16.23;;;8.60;;
25263;SDS011;13211;51.796;5.808;2023-03-01T08:44:06;18.77;;;9.43;;
25263;SDS011;13211;51.796;5.808;2023-03-01T08:46:35;15.88;;;8.43;;
25263;SDS011;13211;51.796;5.808;2023-03-01T08:49:11;19.20;;;8.93;;
25263;SDS011;13211;51.796;5.808;2023-03-01T08:51:39;16.45;;;8.18;;
25263;SDS011;13211;51.796;5.808;2023-03-01T08:54:11;19.17;;;8.02;;
25263;SDS011;13211;51.796;5.808;2023-03-01T08:56:42;28.38;;;8.93;;
25263;SDS011;13211;51.796;5.808;2023-03-01T08:59:11;17.38;;;8.77;;
25263;SDS011;13211;51.796;5.808;2023-03-01T09:01:40;20.37;;;8.50;;
25263;SDS011;13211;51.796;5.808;2023-03-01T09:04:10;19.25;;;8.65;;
25263;SDS011;13211;51.796;5.808;2023-03-01T09:06:38;18.73;;;8.73;;
25263;SDS011;13211;51.796;5.808;2023-03-01T09:09:06;19.05;;;9.05;;
25263;SDS011;13211;51.796;5.808;2023-03-01T09:11:35;17.67;;;8.20;;
25263;SDS011;13211;51.796;5.808;2023-03-01T09:14:07;14.68;;;7.65;;
25263;SDS011;13211;51.796;5.808;2023-03-01T09:16:37;15.65;;;7.63;;
25263;SDS011;13211;51.796;5.808;2023-03-01T09:19:07;16.80;;;7.88;;
25263;SDS011;13211;51.796;5.808;2023-03-01T09:21:34;21.27;;;7.38;;
25263;SDS011;13211;51.796;5.808;2023-03-01T09:24:12;15.95;;;7.68;;
25263;SDS011;13211;51.796;5.808;2023-03-01T09:26:42;15.75;;;7.40;;
25263;SDS011;13211;51.796;5.808;2023-03-01T09:29:21;15.88;;;7.13;;
25263;SDS011;13211;51.796;5.808;2023-03-01T09:31:49;16.25;;;6.70;;
25263;SDS011;13211;51.796;5.808;2023-03-01T09:34:17;13.20;;;6.93;;
25263;SDS011;13211;51.796;5.808;2023-03-01T09:36:50;11.95;;;6.32;;
25263;SDS011;13211;51.796;5.808;2023-03-01T09:39:21;11.50;;;6.70;;
25263;SDS011;13211;51.796;5.808;2023-03-01T09:42:02;13.00;;;6.70;;
25263;SDS011;13211;51.796;5.808;2023-03-01T09:47:12;11.93;;;6.07;;
25263;SDS011;13211;51.796;5.808;2023-03-01T09:49:42;14.60;;;6.65;;
25263;SDS011;13211;51.796;5.808;2023-03-01T09:52:28;12.63;;;6.55;;
25263;SDS011;13211;51.796;5.808;2023-03-01T09:54:58;11.45;;;6.68;;
25263;SDS011;13211;51.796;5.808;2023-03-01T09:57:36;11.07;;;6.35;;
25263;SDS011;13211;51.796;5.808;2023-03-01T10:08:01;14.80;;;7.50;;
25263;SDS011;13211;51.796;5.808;2023-03-01T10:10:33;18.85;;;8.00;;
25263;SDS011;13211;51.796;5.808;2023-03-01T10:13:03;17.05;;;7.90;;
25263;SDS011;13211;51.796;5.808;2023-03-01T10:15:35;15.70;;;9.02;;
25263;SDS011;13211;51.796;5.808;2023-03-01T10:18:13;15.98;;;7.93;;
25263;SDS011;13211;51.796;5.808;2023-03-01T10:23:14;11.55;;;6.60;;
25263;SDS011;13211;51.796;5.808;2023-03-01T10:28:16;11.25;;;5.13;;
25263;SDS011;13211;51.796;5.808;2023-03-01T10:30:46;9.60;;;5.47;;
25263;SDS011;13211;51.796;5.808;2023-03-01T10:33:17;8.27;;;4.88;;
25263;SDS011;13211;51.796;5.808;2023-03-01T10:35:47;10.57;;;5.15;;
25263;SDS011;13211;51.796;5.808;2023-03-01T10:38:17;11.60;;;5.20;;
25263;SDS011;13211;51.796;5.808;2023-03-01T10:43:21;12.70;;;5.45;;
25263;SDS011;13211;51.796;5.808;2023-03-01T10:45:49;8.70;;;5.25;;
25263;SDS011;13211;51.796;5.808;2023-03-01T10:48:18;10.63;;;5.20;;
25263;SDS011;13211;51.796;5.808;2023-03-01T10:50:49;15.60;;;5.57;;
25263;SDS011;13211;51.796;5.808;2023-03-01T10:53:24;9.52;;;5.20;;
25263;SDS011;13211;51.796;5.808;2023-03-01T10:58:34;10.63;;;6.13;;
25263;SDS011;13211;51.796;5.808;2023-03-01T11:01:04;9.18;;;5.32;;
25263;SDS011;13211;51.796;5.808;2023-03-01T11:03:38;10.60;;;5.43;;
25263;SDS011;13211;51.796;5.808;2023-03-01T11:06:19;11.00;;;5.50;;
25263;SDS011;13211;51.796;5.808;2023-03-01T11:08:49;9.52;;;5.03;;
25263;SDS011;13211;51.796;5.808;2023-03-01T11:11:21;11.77;;;5.50;;
25263;SDS011;13211;51.796;5.808;2023-03-01T11:13:50;10.82;;;5.40;;
25263;SDS011;13211;51.796;5.808;2023-03-01T11:16:23;10.07;;;5.50;;
25263;SDS011;13211;51.796;5.808;2023-03-01T11:21:31;7.97;;;5.40;;
25263;SDS011;13211;51.796;5.808;2023-03-01T11:24:01;12.53;;;5.50;;
25263;SDS011;13211;51.796;5.808;2023-03-01T11:26:29;9.50;;;5.57;;
25263;SDS011;13211;51.796;5.808;2023-03-01T11:29:00;12.47;;;5.97;;
25263;SDS011;13211;51.796;5.808;2023-03-01T11:31:30;13.43;;;6.07;;
25263;SDS011;13211;51.796;5.808;2023-03-01T11:34:06;9.82;;;5.90;;
25263;SDS011;13211;51.796;5.808;2023-03-01T11:36:41;10.65;;;5.90;;
25263;SDS011;13211;51.796;5.808;2023-03-01T11:41:43;11.63;;;6.55;;
25263;SDS011;13211;51.796;5.808;2023-03-01T11:44:23;12.10;;;6.63;;
25263;SDS011;13211;51.796;5.808;2023-03-01T11:49:46;12.70;;;6.72;;
25263;SDS011;13211;51.796;5.808;2023-03-01T11:52:24;10.48;;;5.70;;
25263;SDS011;13211;51.796;5.808;2023-03-01T12:00:11;9.35;;;5.72;;
25263;SDS011;13211;51.796;5.808;2023-03-01T12:08:40;9.60;;;5.47;;
25263;SDS011;13211;51.796;5.808;2023-03-01T12:21:51;9.38;;;5.53;;
25263;SDS011;13211;51.796;5.808;2023-03-01T12:29:23;9.38;;;5.72;;
25263;SDS011;13211;51.796;5.808;2023-03-01T12:32:00;10.20;;;6.07;;
25263;SDS011;13211;51.796;5.808;2023-03-01T12:37:12;8.85;;;5.43;;
25263;SDS011;13211;51.796;5.808;2023-03-01T12:42:48;10.05;;;5.47;;
25263;SDS011;13211;51.796;5.808;2023-03-01T12:45:27;11.15;;;5.80;;
25263;SDS011;13211;51.796;5.808;2023-03-01T12:50:54;9.63;;;6.15;;
25263;SDS011;13211;51.796;5.808;2023-03-01T12:53:37;11.43;;;5.97;;
25263;SDS011;13211;51.796;5.808;2023-03-01T12:56:11;9.82;;;5.78;;
25263;SDS011;13211;51.796;5.808;2023-03-01T13:01:41;11.60;;;5.93;;
25263;SDS011;13211;51.796;5.808;2023-03-01T13:06:55;10.32;;;5.75;;
25263;SDS011;13211;51.796;5.808;2023-03-01T13:12:03;11.88;;;6.15;;
25263;SDS011;13211;51.796;5.808;2023-03-01T13:14:44;12.40;;;6.53;;
25263;SDS011;13211;51.796;5.808;2023-03-01T13:17:32;11.55;;;6.20;;
25263;SDS011;13211;51.796;5.808;2023-03-01T13:20:00;10.10;;;6.50;;
25263;SDS011;13211;51.796;5.808;2023-03-01T13:22:30;14.68;;;6.80;;
25263;SDS011;13211;51.796;5.808;2023-03-01T13:27:27;10.73;;;5.80;;
25263;SDS011;13211;51.796;5.808;2023-03-01T13:29:57;11.18;;;6.07;;
25263;SDS011;13211;51.796;5.808;2023-03-01T13:32:33;11.02;;;6.47;;
25263;SDS011;13211;51.796;5.808;2023-03-01T13:37:38;13.15;;;6.78;;
25263;SDS011;13211;51.796;5.808;2023-03-01T13:42:50;10.23;;;6.13;;
25263;SDS011;13211;51.796;5.808;2023-03-01T13:45:41;11.00;;;6.10;;
25263;SDS011;13211;51.796;5.808;2023-03-01T13:50:48;10.52;;;6.25;;
25263;SDS011;13211;51.796;5.808;2023-03-01T13:53:23;8.80;;;5.60;;
25263;SDS011;13211;51.796;5.808;2023-03-01T13:55:55;10.55;;;6.40;;
25263;SDS011;13211;51.796;5.808;2023-03-01T13:58:26;9.68;;;5.78;;
25263;SDS011;13211;51.796;5.808;2023-03-01T14:00:57;8.95;;;6.22;;
25263;SDS011;13211;51.796;5.808;2023-03-01T14:03:24;9.25;;;6.15;;
25263;SDS011;13211;51.796;5.808;2023-03-01T14:08:39;10.02;;;6.20;;
25263;SDS011;13211;51.796;5.808;2023-03-01T14:19:35;11.18;;;6.75;;
25263;SDS011;13211;51.796;5.808;2023-03-01T14:24:49;11.35;;;6.35;;
25263;SDS011;13211;51.796;5.808;2023-03-01T14:27:18;11.13;;;6.75;;
25263;SDS011;13211;51.796;5.808;2023-03-01T14:30:01;11.10;;;6.28;;
25263;SDS011;13211;51.796;5.808;2023-03-01T14:32:30;11.60;;;6.50;;
25263;SDS011;13211;51.796;5.808;2023-03-01T14:34:59;11.90;;;6.55;;
25263;SDS011;13211;51.796;5.808;2023-03-01T14:37:32;10.80;;;6.20;;
25263;SDS011;13211;51.796;5.808;2023-03-01T14:40:02;9.10;;;5.57;;
25263;SDS011;13211;51.796;5.808;2023-03-01T14:42:31;8.43;;;5.90;;
25263;SDS011;13211;51.796;5.808;2023-03-01T14:45:02;12.95;;;5.80;;
25263;SDS011;13211;51.796;5.808;2023-03-01T14:47:32;10.20;;;5.95;;
25263;SDS011;13211;51.796;5.808;2023-03-01T14:52:30;10.70;;;6.07;;
25263;SDS011;13211;51.796;5.808;2023-03-01T14:55:00;9.88;;;6.05;;
25263;SDS011;13211;51.796;5.808;2023-03-01T14:57:30;12.75;;;5.70;;
25263;SDS011;13211;51.796;5.808;2023-03-01T14:59:58;10.57;;;6.15;;
25263;SDS011;13211;51.796;5.808;2023-03-01T15:02:31;10.88;;;5.88;;
25263;SDS011;13211;51.796;5.808;2023-03-01T15:05:00;10.60;;;5.53;;
25263;SDS011;13211;51.796;5.808;2023-03-01T15:07:33;13.48;;;6.22;;
25263;SDS011;13211;51.796;5.808;2023-03-01T15:10:03;14.60;;;6.18;;
25263;SDS011;13211;51.796;5.808;2023-03-01T15:14:59;12.35;;;6.03;;
25263;SDS011;13211;51.796;5.808;2023-03-01T15:17:34;9.05;;;6.10;;
25263;SDS011;13211;51.796;5.808;2023-03-01T15:20:17;10.43;;;5.93;;
25263;SDS011;13211;51.796;5.808;2023-03-01T15:22:49;10.70;;;6.00;;
25263;SDS011;13211;51.796;5.808;2023-03-01T15:25:23;11.20;;;5.75;;
25263;SDS011;13211;51.796;5.808;2023-03-01T15:27:54;10.60;;;5.55;;
25263;SDS011;13211;51.796;5.808;2023-03-01T15:30:23;11.93;;;6.00;;
25263;SDS011;13211;51.796;5.808;2023-03-01T15:35:48;13.52;;;6.40;;
25263;SDS011;13211;51.796;5.808;2023-03-01T15:41:01;11.07;;;6.35;;
25263;SDS011;13211;51.796;5.808;2023-03-01T15:43:37;11.80;;;5.87;;
25263;SDS011;13211;51.796;5.808;2023-03-01T15:46:25;13.90;;;6.13;;
25263;SDS011;13211;51.796;5.808;2023-03-01T15:48:54;11.48;;;5.82;;
25263;SDS011;13211;51.796;5.808;2023-03-01T15:51:27;10.90;;;5.75;;
25263;SDS011;13211;51.796;5.808;2023-03-01T15:53:56;10.50;;;5.68;;
25263;SDS011;13211;51.796;5.808;2023-03-01T15:56:26;11.63;;;6.22;;
25263;SDS011;13211;51.796;5.808;2023-03-01T15:58:57;12.07;;;5.80;;
25263;SDS011;13211;51.796;5.808;2023-03-01T16:01:25;13.63;;;5.80;;
25263;SDS011;13211;51.796;5.808;2023-03-01T16:03:53;10.25;;;6.20;;
25263;SDS011;13211;51.796;5.808;2023-03-01T16:06:21;16.08;;;6.90;;
25263;SDS011;13211;51.796;5.808;2023-03-01T16:08:49;13.82;;;6.65;;
25263;SDS011;13211;51.796;5.808;2023-03-01T16:11:18;11.70;;;6.47;;
25263;SDS011;13211;51.796;5.808;2023-03-01T16:13:46;11.68;;;6.03;;
25263;SDS011;13211;51.796;5.808;2023-03-01T16:16:16;14.37;;;5.97;;
25263;SDS011;13211;51.796;5.808;2023-03-01T16:18:49;13.25;;;6.07;;
25263;SDS011;13211;51.796;5.808;2023-03-01T16:21:25;10.05;;;5.75;;
25263;SDS011;13211;51.796;5.808;2023-03-01T16:23:52;11.15;;;5.40;;
25263;SDS011;13211;51.796;5.808;2023-03-01T16:26:20;10.20;;;5.78;;
25263;SDS011;13211;51.796;5.808;2023-03-01T16:28:48;10.05;;;5.97;;
25263;SDS011;13211;51.796;5.808;2023-03-01T16:31:17;11.57;;;5.70;;
25263;SDS011;13211;51.796;5.808;2023-03-01T16:33:47;9.88;;;5.88;;
25263;SDS011;13211;51.796;5.808;2023-03-01T16:36:19;10.50;;;5.70;;
25263;SDS011;13211;51.796;5.808;2023-03-01T16:38:51;13.02;;;5.75;;
25263;SDS011;13211;51.796;5.808;2023-03-01T16:41:24;13.65;;;5.72;;
25263;SDS011;13211;51.796;5.808;2023-03-01T16:43:51;15.13;;;5.50;;
25263;SDS011;13211;51.796;5.808;2023-03-01T16:46:21;14.45;;;5.45;;
25263;SDS011;13211;51.796;5.808;2023-03-01T16:48:50;11.70;;;5.75;;
25263;SDS011;13211;51.796;5.808;2023-03-01T16:51:18;11.68;;;5.65;;
25263;SDS011;13211;51.796;5.808;2023-03-01T16:53:47;10.02;;;5.20;;
25263;SDS011;13211;51.796;5.808;2023-03-01T16:56:17;12.65;;;5.68;;
25263;SDS011;13211;51.796;5.808;2023-03-01T16:58:47;9.07;;;5.20;;
25263;SDS011;13211;51.796;5.808;2023-03-01T17:01:16;10.27;;;5.10;;
25263;SDS011;13211;51.796;5.808;2023-03-01T17:03:44;12.80;;;6.10;;
25263;SDS011;13211;51.796;5.808;2023-03-01T17:06:14;18.90;;;7.93;;